sensor_id;sensor_type;location;lat;lon;timestamp;pressure;altitude;pressure_sealevel;temperature;humidity
44751;BME280;30477;48.224;11.470;2023-02-16T00:00:20;97099.75;;;-0.31;84.48
44751;BME280;30477;48.224;11.470;2023-02-16T00:02:45;97103.25;;;-0.35;84.28
44751;BME280;30477;48.224;11.470;2023-02-16T00:05:25;97101.72;;;-0.41;84.13
44751;BME280;30477;48.224;11.470;2023-02-16T00:07:52;97102.81;;;-0.48;84.13
44751;BME280;30477;48.224;11.470;2023-02-16T00:10:18;97099.47;;;-0.50;83.89
44751;BME280;30477;48.224;11.470;2023-02-16T00:12:43;97103.34;;;-0.66;83.51
44751;BME280;30477;48.224;11.470;2023-02-16T00:15:27;97100.03;;;-0.68;83.92
44751;BME280;30477;48.224;11.470;2023-02-16T00:17:54;97098.72;;;-0.82;83.60
44751;BME280;30477;48.224;11.470;2023-02-16T00:20:19;97090.94;;;-0.75;83.98
44751;BME280;30477;48.224;11.470;2023-02-16T00:22:45;97087.59;;;-0.77;84.06
44751;BME280;30477;48.224;11.470;2023-02-16T00:25:10;97080.31;;;-0.88;83.74
44751;BME280;30477;48.224;11.470;2023-02-16T00:27:36;97083.66;;;-0.88;83.65
44751;BME280;30477;48.224;11.470;2023-02-16T00:30:05;97076.19;;;-0.92;83.96
44751;BME280;30477;48.224;11.470;2023-02-16T00:32:37;97074.03;;;-0.78;84.13
44751;BME280;30477;48.224;11.470;2023-02-16T00:35:07;97064.44;;;-0.68;84.17
44751;BME280;30477;48.224;11.470;2023-02-16T00:37:37;97072.16;;;-0.71;83.98
44751;BME280;30477;48.224;11.470;2023-02-16T00:40:02;97072.84;;;-0.66;84.23
44751;BME280;30477;48.224;11.470;2023-02-16T00:42:30;97077.03;;;-0.65;84.04
44751;BME280;30477;48.224;11.470;2023-02-16T00:44:57;97071.63;;;-0.83;83.50
44751;BME280;30477;48.224;11.470;2023-02-16T00:47:41;97071.03;;;-0.91;83.99
44751;BME280;30477;48.224;11.470;2023-02-16T00:50:15;97070.00;;;-0.84;84.06
44751;BME280;30477;48.224;11.470;2023-02-16T00:52:42;97063.88;;;-0.78;83.98
44751;BME280;30477;48.224;11.470;2023-02-16T00:55:12;97065.69;;;-0.82;84.25
44751;BME280;30477;48.224;11.470;2023-02-16T00:57:41;97057.28;;;-0.84;84.01
44751;BME280;30477;48.224;11.470;2023-02-16T01:02:56;97063.50;;;-0.94;84.07
44751;BME280;30477;48.224;11.470;2023-02-16T01:05:23;97070.31;;;-0.94;83.87
44751;BME280;30477;48.224;11.470;2023-02-16T01:07:48;97077.00;;;-0.92;83.86
44751;BME280;30477;48.224;11.470;2023-02-16T01:10:34;97061.66;;;-0.89;84.25
44751;BME280;30477;48.224;11.470;2023-02-16T01:13:19;97061.47;;;-0.83;84.25
44751;BME280;30477;48.224;11.470;2023-02-16T01:15:44;97072.38;;;-0.79;84.30
44751;BME280;30477;48.224;11.470;2023-02-16T01:18:15;97076.13;;;-0.91;84.01
44751;BME280;30477;48.224;11.470;2023-02-16T01:20:41;97087.03;;;-0.87;84.19
44751;BME280;30477;48.224;11.470;2023-02-16T01:23:06;97080.22;;;-0.87;84.06
44751;BME280;30477;48.224;11.470;2023-02-16T01:25:31;97087.81;;;-0.85;83.98
44751;BME280;30477;48.224;11.470;2023-02-16T01:27:57;97089.09;;;-1.00;83.86
44751;BME280;30477;48.224;11.470;2023-02-16T01:30:24;97086.25;;;-0.89;84.39
44751;BME280;30477;48.224;11.470;2023-02-16T01:32:50;97083.56;;;-0.85;84.38
44751;BME280;30477;48.224;11.470;2023-02-16T01:35:36;97075.75;;;-0.78;84.15
44751;BME280;30477;48.224;11.470;2023-02-16T01:38:01;97075.97;;;-0.86;84.16
44751;BME280;30477;48.224;11.470;2023-02-16T01:43:21;97073.69;;;-0.66;84.40
44751;BME280;30477;48.224;11.470;2023-02-16T01:45:53;97062.69;;;-0.66;84.15
44751;BME280;30477;48.224;11.470;2023-02-16T01:48:25;97075.50;;;-0.69;84.13
44751;BME280;30477;48.224;11.470;2023-02-16T01:51:04;97071.69;;;-0.84;83.81
44751;BME280;30477;48.224;11.470;2023-02-16T01:53:36;97076.25;;;-0.95;83.85
44751;BME280;30477;48.224;11.470;2023-02-16T01:56:14;97071.75;;;-0.86;84.27
44751;BME280;30477;48.224;11.470;2023-02-16T01:58:45;97071.81;;;-0.89;83.81
44751;BME280;30477;48.224;11.470;2023-02-16T02:01:45;97057.50;;;-0.91;83.94
44751;BME280;30477;48.224;11.470;2023-02-16T02:04:45;97061.16;;;-1.00;83.81
44751;BME280;30477;48.224;11.470;2023-02-16T02:07:39;97062.00;;;-1.01;83.91
44751;BME280;30477;48.224;11.470;2023-02-16T02:10:13;97059.75;;;-1.10;83.74
44751;BME280;30477;48.224;11.470;2023-02-16T02:15:14;97047.50;;;-0.97;84.25
44751;BME280;30477;48.224;11.470;2023-02-16T02:17:41;97039.50;;;-0.84;84.63
44751;BME280;30477;48.224;11.470;2023-02-16T02:20:21;97042.81;;;-0.82;83.90
44751;BME280;30477;48.224;11.470;2023-02-16T02:28:52;97048.34;;;-0.97;83.78
44751;BME280;30477;48.224;11.470;2023-02-16T02:34:19;97046.88;;;-1.04;83.66
44751;BME280;30477;48.224;11.470;2023-02-16T02:37:17;97040.09;;;-1.05;83.69
44751;BME280;30477;48.224;11.470;2023-02-16T02:40:05;97032.72;;;-1.13;83.48
44751;BME280;30477;48.224;11.470;2023-02-16T02:42:55;97040.59;;;-1.22;83.31
44751;BME280;30477;48.224;11.470;2023-02-16T02:45:35;97027.88;;;-1.22;83.59
44751;BME280;30477;48.224;11.470;2023-02-16T02:48:02;97036.25;;;-1.18;83.50
44751;BME280;30477;48.224;11.470;2023-02-16T02:50:46;97032.16;;;-1.23;83.59
44751;BME280;30477;48.224;11.470;2023-02-16T02:53:32;97034.34;;;-1.40;83.40
44751;BME280;30477;48.224;11.470;2023-02-16T02:56:00;97037.56;;;-1.35;83.67
44751;BME280;30477;48.224;11.470;2023-02-16T02:58:49;97036.91;;;-1.41;83.17
44751;BME280;30477;48.224;11.470;2023-02-16T03:01:36;97034.94;;;-1.61;82.88
44751;BME280;30477;48.224;11.470;2023-02-16T03:04:06;97034.94;;;-1.61;83.57
44751;BME280;30477;48.224;11.470;2023-02-16T03:06:39;97035.50;;;-1.52;83.47
44751;BME280;30477;48.224;11.470;2023-02-16T03:09:09;97030.13;;;-1.41;83.67
44751;BME280;30477;48.224;11.470;2023-02-16T03:11:35;97034.41;;;-1.43;83.52
44751;BME280;30477;48.224;11.470;2023-02-16T03:14:27;97034.81;;;-1.57;83.36
44751;BME280;30477;48.224;11.470;2023-02-16T03:17:00;97036.16;;;-1.45;83.72
44751;BME280;30477;48.224;11.470;2023-02-16T03:19:47;97041.38;;;-1.50;83.22
44751;BME280;30477;48.224;11.470;2023-02-16T03:22:33;97039.75;;;-1.52;82.98
44751;BME280;30477;48.224;11.470;2023-02-16T03:25:20;97033.28;;;-1.64;83.01
44751;BME280;30477;48.224;11.470;2023-02-16T03:28:06;97046.28;;;-1.75;82.96
44751;BME280;30477;48.224;11.470;2023-02-16T03:30:52;97049.59;;;-1.73;82.87
44751;BME280;30477;48.224;11.470;2023-02-16T03:33:19;97051.31;;;-1.73;82.97
44751;BME280;30477;48.224;11.470;2023-02-16T03:35:45;97047.72;;;-1.66;83.07
44751;BME280;30477;48.224;11.470;2023-02-16T03:38:11;97043.59;;;-1.70;82.81
44751;BME280;30477;48.224;11.470;2023-02-16T03:40:37;97037.94;;;-1.78;82.74
44751;BME280;30477;48.224;11.470;2023-02-16T03:43:06;97047.34;;;-1.84;82.65
44751;BME280;30477;48.224;11.470;2023-02-16T03:45:33;97053.19;;;-1.80;82.94
44751;BME280;30477;48.224;11.470;2023-02-16T03:48:00;97055.63;;;-1.77;83.05
44751;BME280;30477;48.224;11.470;2023-02-16T03:50:26;97044.34;;;-1.65;83.10
44751;BME280;30477;48.224;11.470;2023-02-16T03:52:52;97045.72;;;-1.53;83.17
44751;BME280;30477;48.224;11.470;2023-02-16T03:55:18;97057.50;;;-1.51;82.89
44751;BME280;30477;48.224;11.470;2023-02-16T03:57:43;97053.34;;;-1.53;82.71
44751;BME280;30477;48.224;11.470;2023-02-16T04:00:10;97056.72;;;-1.54;82.88
44751;BME280;30477;48.224;11.470;2023-02-16T04:02:35;97061.13;;;-1.59;82.51
44751;BME280;30477;48.224;11.470;2023-02-16T04:05:01;97061.91;;;-1.57;82.81
44751;BME280;30477;48.224;11.470;2023-02-16T04:07:26;97058.47;;;-1.56;82.67
44751;BME280;30477;48.224;11.470;2023-02-16T04:09:51;97057.53;;;-1.52;82.29
44751;BME280;30477;48.224;11.470;2023-02-16T04:12:17;97068.78;;;-1.63;82.40
44751;BME280;30477;48.224;11.470;2023-02-16T04:17:45;97056.28;;;-1.70;82.00
44751;BME280;30477;48.224;11.470;2023-02-16T04:20:15;97063.13;;;-1.72;82.09
44751;BME280;30477;48.224;11.470;2023-02-16T04:22:41;97062.28;;;-1.73;82.18
44751;BME280;30477;48.224;11.470;2023-02-16T04:25:07;97063.88;;;-1.69;82.00
44751;BME280;30477;48.224;11.470;2023-02-16T04:27:33;97050.50;;;-1.74;81.98
44751;BME280;30477;48.224;11.470;2023-02-16T04:29:59;97052.13;;;-1.73;81.80
44751;BME280;30477;48.224;11.470;2023-02-16T04:32:24;97065.63;;;-1.71;81.93
44751;BME280;30477;48.224;11.470;2023-02-16T04:34:49;97050.66;;;-1.80;81.86
44751;BME280;30477;48.224;11.470;2023-02-16T04:37:15;97059.75;;;-1.73;81.71
44751;BME280;30477;48.224;11.470;2023-02-16T04:39:40;97057.31;;;-1.76;81.48
44751;BME280;30477;48.224;11.470;2023-02-16T04:42:05;97060.31;;;-1.94;81.17
44751;BME280;30477;48.224;11.470;2023-02-16T04:44:31;97065.72;;;-2.08;81.12
44751;BME280;30477;48.224;11.470;2023-02-16T04:46:56;97065.78;;;-2.10;81.12
44751;BME280;30477;48.224;11.470;2023-02-16T04:49:21;97056.88;;;-2.26;80.98
44751;BME280;30477;48.224;11.470;2023-02-16T04:51:47;97060.91;;;-2.19;81.19
44751;BME280;30477;48.224;11.470;2023-02-16T04:54:13;97056.59;;;-2.14;81.50
44751;BME280;30477;48.224;11.470;2023-02-16T04:56:38;97060.81;;;-2.14;81.19
44751;BME280;30477;48.224;11.470;2023-02-16T04:59:03;97067.53;;;-2.12;81.05
44751;BME280;30477;48.224;11.470;2023-02-16T05:01:29;97065.97;;;-2.17;81.10
44751;BME280;30477;48.224;11.470;2023-02-16T05:03:54;97062.31;;;-2.06;81.21
44751;BME280;30477;48.224;11.470;2023-02-16T05:06:20;97064.75;;;-2.02;81.18
44751;BME280;30477;48.224;11.470;2023-02-16T05:08:45;97061.28;;;-2.00;81.05
44751;BME280;30477;48.224;11.470;2023-02-16T05:11:11;97068.09;;;-2.00;80.90
44751;BME280;30477;48.224;11.470;2023-02-16T05:13:56;97069.00;;;-2.03;80.86
44751;BME280;30477;48.224;11.470;2023-02-16T05:16:41;97061.34;;;-2.01;80.69
44751;BME280;30477;48.224;11.470;2023-02-16T05:19:06;97068.38;;;-2.13;80.44
44751;BME280;30477;48.224;11.470;2023-02-16T05:21:32;97066.91;;;-2.21;80.72
44751;BME280;30477;48.224;11.470;2023-02-16T05:24:02;97072.16;;;-2.29;80.51
44751;BME280;30477;48.224;11.470;2023-02-16T05:26:28;97073.19;;;-2.36;80.50
44751;BME280;30477;48.224;11.470;2023-02-16T05:28:54;97065.56;;;-2.36;80.35
44751;BME280;30477;48.224;11.470;2023-02-16T05:31:20;97069.13;;;-2.43;80.35
44751;BME280;30477;48.224;11.470;2023-02-16T05:33:46;97075.19;;;-2.51;80.44
44751;BME280;30477;48.224;11.470;2023-02-16T05:36:12;97078.56;;;-2.50;80.71
44751;BME280;30477;48.224;11.470;2023-02-16T05:38:37;97074.94;;;-2.40;80.73
44751;BME280;30477;48.224;11.470;2023-02-16T05:41:03;97068.00;;;-2.32;81.18
44751;BME280;30477;48.224;11.470;2023-02-16T05:43:28;97076.22;;;-2.22;81.05
44751;BME280;30477;48.224;11.470;2023-02-16T05:45:53;97075.53;;;-2.29;80.75
44751;BME280;30477;48.224;11.470;2023-02-16T05:48:19;97079.06;;;-2.34;80.51
44751;BME280;30477;48.224;11.470;2023-02-16T05:50:44;97077.53;;;-2.41;80.41
44751;BME280;30477;48.224;11.470;2023-02-16T05:53:10;97081.59;;;-2.36;81.04
44751;BME280;30477;48.224;11.470;2023-02-16T05:55:35;97079.44;;;-2.15;81.18
44751;BME280;30477;48.224;11.470;2023-02-16T05:58:00;97085.94;;;-2.03;80.98
44751;BME280;30477;48.224;11.470;2023-02-16T06:00:26;97085.34;;;-2.15;80.54
44751;BME280;30477;48.224;11.470;2023-02-16T06:02:52;97088.63;;;-2.10;80.70
44751;BME280;30477;48.224;11.470;2023-02-16T06:05:17;97085.13;;;-2.06;80.60
44751;BME280;30477;48.224;11.470;2023-02-16T06:07:43;97085.13;;;-2.06;80.48
44751;BME280;30477;48.224;11.470;2023-02-16T06:10:11;97084.38;;;-2.09;80.60
44751;BME280;30477;48.224;11.470;2023-02-16T06:12:36;97091.94;;;-2.08;80.61
44751;BME280;30477;48.224;11.470;2023-02-16T06:15:02;97096.69;;;-1.95;80.82
44751;BME280;30477;48.224;11.470;2023-02-16T06:17:27;97090.09;;;-2.01;80.41
44751;BME280;30477;48.224;11.470;2023-02-16T06:19:53;97094.88;;;-1.90;80.70
44751;BME280;30477;48.224;11.470;2023-02-16T06:22:19;97111.91;;;-1.95;80.48
44751;BME280;30477;48.224;11.470;2023-02-16T06:24:45;97103.47;;;-1.96;80.77
44751;BME280;30477;48.224;11.470;2023-02-16T06:27:11;97109.44;;;-1.97;80.47
44751;BME280;30477;48.224;11.470;2023-02-16T06:29:36;97113.84;;;-2.03;80.40
44751;BME280;30477;48.224;11.470;2023-02-16T06:32:01;97123.13;;;-2.04;80.40
44751;BME280;30477;48.224;11.470;2023-02-16T06:34:27;97126.56;;;-2.07;80.81
44751;BME280;30477;48.224;11.470;2023-02-16T06:36:52;97121.31;;;-1.99;80.59
44751;BME280;30477;48.224;11.470;2023-02-16T06:39:18;97121.91;;;-1.89;80.65
44751;BME280;30477;48.224;11.470;2023-02-16T06:41:43;97122.84;;;-1.93;80.29
44751;BME280;30477;48.224;11.470;2023-02-16T06:44:11;97126.19;;;-1.91;80.79
44751;BME280;30477;48.224;11.470;2023-02-16T06:46:37;97130.91;;;-1.76;80.46
44751;BME280;30477;48.224;11.470;2023-02-16T06:49:03;97124.09;;;-1.74;80.42
44751;BME280;30477;48.224;11.470;2023-02-16T06:51:29;97126.63;;;-1.74;80.24
44751;BME280;30477;48.224;11.470;2023-02-16T06:53:54;97134.13;;;-1.69;80.54
44751;BME280;30477;48.224;11.470;2023-02-16T06:56:20;97130.69;;;-1.68;80.32
44751;BME280;30477;48.224;11.470;2023-02-16T06:58:45;97123.81;;;-1.63;80.33
44751;BME280;30477;48.224;11.470;2023-02-16T07:01:11;97121.94;;;-1.56;80.38
44751;BME280;30477;48.224;11.470;2023-02-16T07:03:36;97127.66;;;-1.48;80.48
44751;BME280;30477;48.224;11.470;2023-02-16T07:06:02;97127.25;;;-1.33;80.57
44751;BME280;30477;48.224;11.470;2023-02-16T07:08:27;97122.00;;;-1.27;80.41
44751;BME280;30477;48.224;11.470;2023-02-16T07:10:53;97121.78;;;-1.17;80.50
44751;BME280;30477;48.224;11.470;2023-02-16T07:13:19;97117.91;;;-1.01;80.64
44751;BME280;30477;48.224;11.470;2023-02-16T07:15:45;97127.06;;;-0.95;80.48
44751;BME280;30477;48.224;11.470;2023-02-16T07:18:10;97127.81;;;-0.92;80.41
44751;BME280;30477;48.224;11.470;2023-02-16T07:20:36;97129.47;;;-0.91;80.41
44751;BME280;30477;48.224;11.470;2023-02-16T07:23:02;97133.47;;;-0.82;80.40
44751;BME280;30477;48.224;11.470;2023-02-16T07:25:27;97133.28;;;-0.76;80.51
44751;BME280;30477;48.224;11.470;2023-02-16T07:27:52;97137.09;;;-0.61;80.41
44751;BME280;30477;48.224;11.470;2023-02-16T07:30:19;97134.34;;;-0.53;80.02
44751;BME280;30477;48.224;11.470;2023-02-16T07:32:45;97137.19;;;-0.64;79.79
44751;BME280;30477;48.224;11.470;2023-02-16T07:35:11;97136.50;;;-0.69;79.75
44751;BME280;30477;48.224;11.470;2023-02-16T07:37:36;97128.50;;;-0.57;79.84
44751;BME280;30477;48.224;11.470;2023-02-16T07:40:02;97129.88;;;-0.47;79.84
44751;BME280;30477;48.224;11.470;2023-02-16T07:42:32;97138.94;;;-0.38;79.80
44751;BME280;30477;48.224;11.470;2023-02-16T07:44:57;97142.03;;;-0.27;79.62
44751;BME280;30477;48.224;11.470;2023-02-16T07:47:23;97141.91;;;-0.24;79.57
44751;BME280;30477;48.224;11.470;2023-02-16T07:49:49;97145.88;;;-0.15;79.70
44751;BME280;30477;48.224;11.470;2023-02-16T07:52:14;97143.34;;;-0.15;79.62
44751;BME280;30477;48.224;11.470;2023-02-16T07:54:40;97146.59;;;-0.10;79.55
44751;BME280;30477;48.224;11.470;2023-02-16T07:57:05;97135.59;;;-0.10;79.37
44751;BME280;30477;48.224;11.470;2023-02-16T07:59:31;97143.88;;;-0.05;79.70
44751;BME280;30477;48.224;11.470;2023-02-16T08:01:56;97141.97;;;0.02;79.88
44751;BME280;30477;48.224;11.470;2023-02-16T08:04:21;97150.41;;;0.04;79.46
44751;BME280;30477;48.224;11.470;2023-02-16T08:06:47;97155.13;;;0.14;79.72
44751;BME280;30477;48.224;11.470;2023-02-16T08:09:16;97159.09;;;0.23;79.80
44751;BME280;30477;48.224;11.470;2023-02-16T08:11:41;97156.94;;;0.37;79.80
44751;BME280;30477;48.224;11.470;2023-02-16T08:14:07;97171.16;;;0.45;79.95
44751;BME280;30477;48.224;11.470;2023-02-16T08:16:33;97164.88;;;0.55;79.68
44751;BME280;30477;48.224;11.470;2023-02-16T08:18:59;97156.91;;;0.64;79.82
44751;BME280;30477;48.224;11.470;2023-02-16T08:21:30;97161.88;;;0.67;79.59
44751;BME280;30477;48.224;11.470;2023-02-16T08:23:58;97155.88;;;0.70;79.55
44751;BME280;30477;48.224;11.470;2023-02-16T08:26:27;97157.22;;;0.80;79.53
44751;BME280;30477;48.224;11.470;2023-02-16T08:28:55;97159.63;;;0.85;79.38
44751;BME280;30477;48.224;11.470;2023-02-16T08:31:22;97157.63;;;0.93;79.22
44751;BME280;30477;48.224;11.470;2023-02-16T08:33:50;97147.16;;;1.00;79.26
44751;BME280;30477;48.224;11.470;2023-02-16T08:36:27;97153.41;;;1.15;79.03
44751;BME280;30477;48.224;11.470;2023-02-16T08:38:57;97149.78;;;1.23;79.05
44751;BME280;30477;48.224;11.470;2023-02-16T08:41:26;97150.25;;;1.32;78.78
44751;BME280;30477;48.224;11.470;2023-02-16T08:43:53;97158.34;;;1.44;78.86
44751;BME280;30477;48.224;11.470;2023-02-16T08:46:19;97152.06;;;1.52;78.72
44751;BME280;30477;48.224;11.470;2023-02-16T08:48:46;97153.50;;;1.59;78.58
44751;BME280;30477;48.224;11.470;2023-02-16T08:51:16;97139.63;;;1.67;78.65
44751;BME280;30477;48.224;11.470;2023-02-16T08:53:43;97144.56;;;1.71;78.55
44751;BME280;30477;48.224;11.470;2023-02-16T08:56:09;97142.50;;;1.81;78.65
44751;BME280;30477;48.224;11.470;2023-02-16T08:58:35;97143.78;;;1.91;78.50
44751;BME280;30477;48.224;11.470;2023-02-16T09:01:09;97145.97;;;2.00;78.49
44751;BME280;30477;48.224;11.470;2023-02-16T09:03:36;97146.63;;;2.06;78.56
44751;BME280;30477;48.224;11.470;2023-02-16T09:06:04;97154.81;;;2.14;78.37
44751;BME280;30477;48.224;11.470;2023-02-16T09:08:30;97152.25;;;2.14;78.32
44751;BME280;30477;48.224;11.470;2023-02-16T09:11:04;97151.13;;;2.21;78.60
44751;BME280;30477;48.224;11.470;2023-02-16T09:13:32;97149.59;;;2.17;78.31
44751;BME280;30477;48.224;11.470;2023-02-16T09:16:03;97148.03;;;2.13;78.32
44751;BME280;30477;48.224;11.470;2023-02-16T09:18:30;97146.91;;;2.20;78.62
44751;BME280;30477;48.224;11.470;2023-02-16T09:20:57;97149.19;;;2.26;78.48
44751;BME280;30477;48.224;11.470;2023-02-16T09:23:27;97157.69;;;2.27;78.39
44751;BME280;30477;48.224;11.470;2023-02-16T09:25:52;97156.81;;;2.28;78.40
44751;BME280;30477;48.224;11.470;2023-02-16T09:28:18;97151.31;;;2.37;78.49
44751;BME280;30477;48.224;11.470;2023-02-16T09:30:44;97149.34;;;2.43;78.41
44751;BME280;30477;48.224;11.470;2023-02-16T09:33:10;97152.50;;;2.50;78.32
44751;BME280;30477;48.224;11.470;2023-02-16T09:35:40;97145.91;;;2.65;78.45
44751;BME280;30477;48.224;11.470;2023-02-16T09:38:05;97155.63;;;2.77;78.55
44751;BME280;30477;48.224;11.470;2023-02-16T09:40:32;97160.28;;;2.88;78.38
44751;BME280;30477;48.224;11.470;2023-02-16T09:43:12;97150.84;;;3.09;78.72
44751;BME280;30477;48.224;11.470;2023-02-16T09:45:42;97148.78;;;3.17;78.50
44751;BME280;30477;48.224;11.470;2023-02-16T09:48:37;97148.53;;;3.23;78.22
44751;BME280;30477;48.224;11.470;2023-02-16T09:51:09;97146.25;;;3.36;78.14
44751;BME280;30477;48.224;11.470;2023-02-16T09:53:40;97143.81;;;3.52;78.21
44751;BME280;30477;48.224;11.470;2023-02-16T09:56:34;97139.63;;;3.69;78.07
44751;BME280;30477;48.224;11.470;2023-02-16T09:59:10;97144.03;;;3.84;77.88
44751;BME280;30477;48.224;11.470;2023-02-16T10:01:56;97138.34;;;3.96;77.79
44751;BME280;30477;48.224;11.470;2023-02-16T10:04:31;97139.13;;;4.16;77.52
44751;BME280;30477;48.224;11.470;2023-02-16T10:09:55;97141.47;;;4.55;77.47
44751;BME280;30477;48.224;11.470;2023-02-16T10:12:28;97143.94;;;4.74;77.30
44751;BME280;30477;48.224;11.470;2023-02-16T10:15:20;97133.38;;;4.98;77.44
44751;BME280;30477;48.224;11.470;2023-02-16T10:17:54;97135.38;;;5.24;76.77
44751;BME280;30477;48.224;11.470;2023-02-16T10:20:26;97132.34;;;5.49;76.44
44751;BME280;30477;48.224;11.470;2023-02-16T10:28:16;97127.84;;;6.47;74.91
44751;BME280;30477;48.224;11.470;2023-02-16T10:30:48;97126.31;;;6.59;73.79
44751;BME280;30477;48.224;11.470;2023-02-16T10:33:26;97127.78;;;6.63;72.86
44751;BME280;30477;48.224;11.470;2023-02-16T10:35:59;97127.44;;;6.69;72.15
44751;BME280;30477;48.224;11.470;2023-02-16T10:38:44;97129.09;;;6.84;71.56
44751;BME280;30477;48.224;11.470;2023-02-16T10:41:29;97125.78;;;6.97;71.17
44751;BME280;30477;48.224;11.470;2023-02-16T10:43:59;97124.03;;;7.11;70.55
44751;BME280;30477;48.224;11.470;2023-02-16T10:46:31;97125.97;;;7.22;69.58
44751;BME280;30477;48.224;11.470;2023-02-16T10:48:59;97118.06;;;7.25;68.84
44751;BME280;30477;48.224;11.470;2023-02-16T10:51:31;97117.78;;;7.30;68.20
44751;BME280;30477;48.224;11.470;2023-02-16T10:54:04;97111.97;;;7.55;67.65
44751;BME280;30477;48.224;11.470;2023-02-16T10:59:43;97107.38;;;7.87;66.17
44751;BME280;30477;48.224;11.470;2023-02-16T11:02:33;97109.78;;;8.03;65.47
44751;BME280;30477;48.224;11.470;2023-02-16T11:04:59;97103.84;;;8.16;64.27
44751;BME280;30477;48.224;11.470;2023-02-16T11:07:30;97092.41;;;8.20;63.78
44751;BME280;30477;48.224;11.470;2023-02-16T11:09:58;97101.25;;;8.16;63.29
44751;BME280;30477;48.224;11.470;2023-02-16T11:12:39;97099.84;;;8.24;63.00
44751;BME280;30477;48.224;11.470;2023-02-16T11:28:47;97069.28;;;8.97;58.25
44751;BME280;30477;48.224;11.470;2023-02-16T11:31:18;97062.75;;;9.04;57.79
44751;BME280;30477;48.224;11.470;2023-02-16T11:34:10;97057.31;;;9.20;56.92
44751;BME280;30477;48.224;11.470;2023-02-16T11:39:07;97054.97;;;9.53;55.38
44751;BME280;30477;48.224;11.470;2023-02-16T11:41:48;97058.22;;;9.68;54.25
44751;BME280;30477;48.224;11.470;2023-02-16T11:46:46;97040.09;;;9.92;52.90
44751;BME280;30477;48.224;11.470;2023-02-16T11:49:31;97041.41;;;9.98;51.55
44751;BME280;30477;48.224;11.470;2023-02-16T11:51:57;97030.75;;;10.14;51.31
44751;BME280;30477;48.224;11.470;2023-02-16T11:54:23;97041.44;;;10.09;50.94
44751;BME280;30477;48.224;11.470;2023-02-16T11:57:06;97036.78;;;10.14;50.20
44751;BME280;30477;48.224;11.470;2023-02-16T11:59:37;97024.06;;;10.11;49.30
44751;BME280;30477;48.224;11.470;2023-02-16T12:05:09;97019.22;;;10.07;49.25
44751;BME280;30477;48.224;11.470;2023-02-16T12:08:08;97020.91;;;10.19;48.65
44751;BME280;30477;48.224;11.470;2023-02-16T12:13:20;97004.88;;;10.38;47.19
44751;BME280;30477;48.224;11.470;2023-02-16T12:16:05;97007.66;;;10.35;47.13
44751;BME280;30477;48.224;11.470;2023-02-16T12:18:56;97003.41;;;10.23;47.60
44751;BME280;30477;48.224;11.470;2023-02-16T12:26:49;96994.75;;;10.57;45.56
44751;BME280;30477;48.224;11.470;2023-02-16T12:35:32;96985.00;;;10.84;45.70
44751;BME280;30477;48.224;11.470;2023-02-16T12:38:24;96986.53;;;10.86;45.53
44751;BME280;30477;48.224;11.470;2023-02-16T12:43:54;96986.75;;;10.72;45.96
44751;BME280;30477;48.224;11.470;2023-02-16T12:46:26;96980.63;;;10.84;45.42
44751;BME280;30477;48.224;11.470;2023-02-16T12:51:52;96973.47;;;10.76;45.48
44751;BME280;30477;48.224;11.470;2023-02-16T12:54:49;96972.16;;;10.82;45.40
44751;BME280;30477;48.224;11.470;2023-02-16T12:57:19;96964.38;;;10.93;44.57
44751;BME280;30477;48.224;11.470;2023-02-16T13:00:03;96961.81;;;10.82;44.27
44751;BME280;30477;48.224;11.470;2023-02-16T13:02:42;96961.00;;;10.82;44.10
44751;BME280;30477;48.224;11.470;2023-02-16T13:05:18;96960.16;;;10.81;44.59
44751;BME280;30477;48.224;11.470;2023-02-16T13:07:46;96957.09;;;10.99;44.01
44751;BME280;30477;48.224;11.470;2023-02-16T13:13:09;96948.34;;;11.00;43.78
44751;BME280;30477;48.224;11.470;2023-02-16T13:15:41;96941.22;;;10.92;43.97
44751;BME280;30477;48.224;11.470;2023-02-16T13:20:49;96940.50;;;10.90;43.57
44751;BME280;30477;48.224;11.470;2023-02-16T13:25:54;96939.56;;;10.68;42.93
44751;BME280;30477;48.224;11.470;2023-02-16T13:28:44;96938.88;;;10.77;42.95
44751;BME280;30477;48.224;11.470;2023-02-16T13:34:35;96941.22;;;10.92;43.57
44751;BME280;30477;48.224;11.470;2023-02-16T13:45:33;96935.69;;;10.74;43.68
44751;BME280;30477;48.224;11.470;2023-02-16T13:48:12;96927.66;;;10.88;44.34
44751;BME280;30477;48.224;11.470;2023-02-16T13:50:38;96927.03;;;10.96;43.98
44751;BME280;30477;48.224;11.470;2023-02-16T13:53:17;96932.09;;;10.97;43.21
44751;BME280;30477;48.224;11.470;2023-02-16T13:55:43;96929.28;;;11.01;43.33
44751;BME280;30477;48.224;11.470;2023-02-16T14:00:38;96920.03;;;10.75;43.46
44751;BME280;30477;48.224;11.470;2023-02-16T14:05:51;96926.22;;;11.07;44.85
44751;BME280;30477;48.224;11.470;2023-02-16T14:16:29;96909.88;;;11.27;42.64
44751;BME280;30477;48.224;11.470;2023-02-16T14:18:59;96918.03;;;11.23;42.52
44751;BME280;30477;48.224;11.470;2023-02-16T14:21:43;96910.56;;;11.29;42.83
44751;BME280;30477;48.224;11.470;2023-02-16T14:24:32;96909.88;;;11.27;42.71
44751;BME280;30477;48.224;11.470;2023-02-16T14:27:01;96905.38;;;11.41;42.16
44751;BME280;30477;48.224;11.470;2023-02-16T14:29:56;96911.69;;;11.48;41.54
44751;BME280;30477;48.224;11.470;2023-02-16T14:32:26;96905.38;;;11.41;41.83
44751;BME280;30477;48.224;11.470;2023-02-16T14:34:57;96907.00;;;11.42;42.11
44751;BME280;30477;48.224;11.470;2023-02-16T14:37:30;96901.09;;;11.51;41.17
44751;BME280;30477;48.224;11.470;2023-02-16T14:43:02;96906.41;;;11.38;40.60
44751;BME280;30477;48.224;11.470;2023-02-16T14:53:13;96909.88;;;11.27;40.27
44751;BME280;30477;48.224;11.470;2023-02-16T14:56:08;96905.44;;;11.18;40.50
44751;BME280;30477;48.224;11.470;2023-02-16T15:01:19;96910.09;;;11.35;40.23
44751;BME280;30477;48.224;11.470;2023-02-16T15:03:48;96908.00;;;11.29;40.81
44751;BME280;30477;48.224;11.470;2023-02-16T15:08:55;96904.69;;;11.27;40.99
44751;BME280;30477;48.224;11.470;2023-02-16T15:14:07;96897.19;;;11.24;41.44
44751;BME280;30477;48.224;11.470;2023-02-16T15:16:37;96892.22;;;11.32;41.64